Time;durP1;ratioP1;P1;durP2;ratioP2;P2;SDS_P1;SDS_P2;PMS_P1;PMS_P2;Temp;Humidity;BMP_temperature;BMP_pressure;BME280_temperature;BME280_humidity;BME280_pressure;Samples;Min_cycle;Max_cycle;Signal;HPM_P1;HPM_P2
2021/03/13 00:00:36;;;;;;;4.13;2.33;;;7.20;99.90;;;;;;5051103;28;20171;-63
2021/03/13 00:03:02;;;;;;;6.80;3.87;;;7.20;99.90;;;;;;5051063;28;20199;-63
2021/03/13 00:05:36;;;;;;;5.13;2.03;;;7.30;99.90;;;;;;5051408;28;20175;-63
2021/03/13 00:08:02;;;;;;;5.17;2.70;;;7.30;99.90;;;;;;5051223;28;20718;-64
2021/03/13 00:10:28;;;;;;;4.23;2.50;;;7.40;99.90;;;;;;5050867;28;20561;-64
2021/03/13 00:12:54;;;;;;;5.93;2.13;;;7.40;99.90;;;;;;5051339;28;20186;-64
2021/03/13 00:15:21;;;;;;;8.77;3.63;;;7.20;99.90;;;;;;5050907;28;20182;-63
2021/03/13 00:17:49;;;;;;;3.83;2.33;;;7.10;99.90;;;;;;5051090;28;20183;-63
2021/03/13 00:20:19;;;;;;;6.73;3.50;;;6.90;99.90;;;;;;5050871;28;20169;-63
2021/03/13 00:22:45;;;;;;;4.93;2.60;;;6.70;99.90;;;;;;5050881;28;20278;-63
2021/03/13 00:25:12;;;;;;;2.80;2.30;;;6.50;99.90;;;;;;5051338;28;20193;-63
2021/03/13 00:27:48;;;;;;;7.27;3.10;;;6.50;99.90;;;;;;5050938;28;20244;-63
2021/03/13 00:30:22;;;;;;;5.57;2.50;;;6.40;99.90;;;;;;5050553;28;20537;-63
2021/03/13 00:32:51;;;;;;;3.83;2.47;;;6.40;99.90;;;;;;5050472;28;20312;-63
2021/03/13 00:35:18;;;;;;;3.87;2.63;;;6.30;99.90;;;;;;5051268;28;20229;-63
2021/03/13 00:37:44;;;;;;;7.07;3.63;;;6.30;99.90;;;;;;5051097;28;20183;-64
2021/03/13 00:40:13;;;;;;;5.20;2.70;;;6.20;99.90;;;;;;5053147;28;20163;-64
2021/03/13 00:42:39;;;;;;;7.80;3.17;;;6.20;99.90;;;;;;5054726;28;20202;-64
2021/03/13 00:45:08;;;;;;;4.47;3.30;;;6.20;99.90;;;;;;5055276;28;20218;-64
2021/03/13 00:47:33;;;;;;;5.70;3.10;;;6.20;99.90;;;;;;5042171;28;20186;-64
2021/03/13 00:49:59;;;;;;;8.80;3.63;;;6.10;99.90;;;;;;5054842;28;20484;-64
2021/03/13 00:52:25;;;;;;;6.10;3.13;;;6.10;99.90;;;;;;5054250;28;20241;-64
2021/03/13 00:54:50;;;;;;;11.10;3.50;;;6.20;99.90;;;;;;5055012;28;20167;-64
2021/03/13 00:57:16;;;;;;;6.33;2.83;;;6.10;99.90;;;;;;5055026;28;20171;-63
2021/03/13 00:59:42;;;;;;;11.77;4.20;;;6.20;99.90;;;;;;5054563;28;20542;-63
2021/03/13 01:02:07;;;;;;;4.63;3.10;;;6.30;99.90;;;;;;5054333;28;20544;-64
2021/03/13 01:04:33;;;;;;;8.63;2.97;;;6.40;99.90;;;;;;5054828;28;20523;-64
2021/03/13 01:06:59;;;;;;;10.77;3.47;;;6.40;99.90;;;;;;5054672;28;20186;-64
2021/03/13 01:09:24;;;;;;;9.17;4.27;;;6.50;99.90;;;;;;5054534;28;20252;-64
2021/03/13 01:11:50;;;;;;;4.67;2.93;;;6.50;99.90;;;;;;5053713;28;20210;-63
2021/03/13 01:14:16;;;;;;;6.83;3.40;;;6.60;99.90;;;;;;5054342;28;20167;-63
2021/03/13 01:16:42;;;;;;;8.70;4.23;;;6.60;99.90;;;;;;5054499;28;20171;-64
2021/03/13 01:19:08;;;;;;;4.47;3.47;;;6.60;99.90;;;;;;5054499;28;20194;-64
2021/03/13 01:21:34;;;;;;;4.57;3.70;;;6.70;99.90;;;;;;5053993;28;20262;-64
2021/03/13 01:23:59;;;;;;;7.20;3.63;;;6.60;99.90;;;;;;5054340;28;20205;-64
2021/03/13 01:26:25;;;;;;;5.00;2.93;;;6.70;99.90;;;;;;5053882;28;20213;-64
2021/03/13 01:28:51;;;;;;;8.13;3.13;;;6.70;99.90;;;;;;5054131;28;20177;-64
2021/03/13 01:31:16;;;;;;;6.63;3.17;;;6.70;99.90;;;;;;5053450;28;20210;-64
2021/03/13 01:33:42;;;;;;;7.57;3.43;;;6.70;99.90;;;;;;5054190;28;20194;-64
2021/03/13 01:36:08;;;;;;;4.90;2.77;;;6.70;99.90;;;;;;5053857;28;20186;-64
2021/03/13 01:38:33;;;;;;;9.03;3.17;;;6.70;99.90;;;;;;5053498;28;20179;-64
2021/03/13 01:41:00;;;;;;;5.10;2.90;;;6.70;99.90;;;;;;5053865;28;20182;-64
2021/03/13 01:43:25;;;;;;;6.33;3.20;;;6.70;99.90;;;;;;5053784;28;20195;-64
2021/03/13 01:45:52;;;;;;;7.53;3.37;;;6.70;99.90;;;;;;5053871;28;20709;-64
2021/03/13 01:48:18;;;;;;;4.33;3.07;;;6.70;99.90;;;;;;5053952;28;20719;-64
2021/03/13 01:50:45;;;;;;;4.13;2.67;;;6.60;99.90;;;;;;5052490;28;20207;-64
2021/03/13 01:53:11;;;;;;;4.60;3.00;;;6.60;99.90;;;;;;5053777;28;20206;-64
2021/03/13 01:55:37;;;;;;;6.73;3.50;;;6.60;99.90;;;;;;5053910;28;20640;-64
2021/03/13 01:58:02;;;;;;;5.07;3.60;;;6.60;99.90;;;;;;5053811;28;20179;-64
2021/03/13 02:00:28;;;;;;;4.53;3.40;;;6.50;99.90;;;;;;5053500;28;20167;-63
2021/03/13 02:02:54;;;;;;;8.43;3.63;;;6.50;99.90;;;;;;5053489;28;20270;-64
2021/03/13 02:05:42;;;;;;;4.80;3.07;;;6.60;99.90;;;;;;5053800;28;20163;-64
2021/03/13 02:08:45;;;;;;;2.67;2.23;;;6.50;99.90;;;;;;5053989;28;20675;-64
2021/03/13 02:11:18;;;;;;;4.03;2.20;;;6.50;99.90;;;;;;5053068;28;20675;-64
2021/03/13 02:13:47;;;;;;;4.03;2.80;;;6.40;99.90;;;;;;5053306;28;20289;-64
2021/03/13 02:16:38;;;;;;;2.77;2.30;;;6.40;99.90;;;;;;5052044;28;20220;-64
2021/03/13 02:19:44;;;;;;;3.90;2.40;;;6.40;99.90;;;;;;5053543;28;20194;-64
2021/03/13 02:22:13;;;;;;;2.80;2.20;;;6.40;99.90;;;;;;5052833;28;20703;-65
2021/03/13 02:24:57;;;;;;;2.60;2.40;;;6.40;99.90;;;;;;5053084;28;20175;-64
2021/03/13 02:27:25;;;;;;;2.40;2.20;;;6.40;99.90;;;;;;5053214;28;20186;-64
2021/03/13 02:29:58;;;;;;;2.13;1.97;;;6.40;99.90;;;;;;5053021;28;20606;-63
2021/03/13 02:32:54;;;;;;;2.57;2.10;;;6.30;99.90;;;;;;5052540;28;20213;-63
2021/03/13 02:35:36;;;;;;;2.97;2.30;;;6.30;99.90;;;;;;5053305;28;20173;-64
2021/03/13 02:38:09;;;;;;;2.67;2.20;;;6.30;99.90;;;;;;5052731;28;20163;-64
2021/03/13 02:40:37;;;;;;;2.50;2.20;;;6.30;99.90;;;;;;5052842;28;20194;-64
2021/03/13 02:43:07;;;;;;;3.37;1.97;;;6.30;99.90;;;;;;5060119;22;20219;-67
2021/03/13 02:45:37;;;;;;;3.60;2.40;;;6.30;99.90;;;;;;5032865;28;20640;-67
2021/03/13 02:48:06;;;;;;;2.97;2.10;;;6.30;99.90;;;;;;5032710;28;20180;-67
2021/03/13 02:50:35;;;;;;;2.13;1.93;;;6.20;99.90;;;;;;5032074;28;20176;-67
2021/03/13 02:53:01;;;;;;;2.37;2.00;;;6.30;99.90;;;;;;5032640;28;20462;-66
2021/03/13 02:55:29;;;;;;;2.80;1.93;;;6.30;99.90;;;;;;5032292;28;20172;-67
2021/03/13 02:57:58;;;;;;;2.53;2.10;;;6.30;99.90;;;;;;5032671;28;20168;-67
2021/03/13 03:00:27;;;;;;;1.73;1.63;;;6.30;99.90;;;;;;5031621;28;20245;-65
2021/03/13 03:02:57;;;;;;;1.67;1.57;;;6.30;99.90;;;;;;5032469;28;20223;-65
2021/03/13 03:05:25;;;;;;;1.50;1.40;;;6.30;99.90;;;;;;5032324;28;20180;-67
2021/03/13 03:07:53;;;;;;;2.23;2.00;;;6.30;99.90;;;;;;5032310;28;20266;-66
2021/03/13 03:10:23;;;;;;;1.70;1.60;;;6.30;99.90;;;;;;5031570;28;20179;-66
2021/03/13 03:12:50;;;;;;;1.70;1.60;;;6.30;99.90;;;;;;5032213;28;20625;-67
2021/03/13 03:15:20;;;;;;;1.60;1.50;;;6.30;99.90;;;;;;5032200;28;20183;-67
2021/03/13 03:17:47;;;;;;;2.03;1.40;;;6.30;99.90;;;;;;5032271;28;20163;-67
2021/03/13 03:20:14;;;;;;;1.90;1.80;;;6.30;99.90;;;;;;5031702;28;20171;-67
2021/03/13 03:22:40;;;;;;;1.60;1.50;;;6.30;99.90;;;;;;5031880;28;20282;-67
2021/03/13 03:25:08;;;;;;;3.37;2.63;;;6.30;99.90;;;;;;5032178;28;20372;-67
2021/03/13 03:27:34;;;;;;;3.80;2.07;;;6.30;99.90;;;;;;5031844;28;20222;-66
2021/03/13 03:30:02;;;;;;;1.63;1.53;;;6.30;99.90;;;;;;5031833;28;20237;-65
2021/03/13 03:32:27;;;;;;;1.87;1.60;;;6.30;99.90;;;;;;5030335;28;20242;-66
2021/03/13 03:34:53;;;;;;;1.57;1.47;;;6.40;99.90;;;;;;5031837;28;20199;-67
2021/03/13 03:37:19;;;;;;;1.53;1.40;;;6.30;99.90;;;;;;5032280;28;20645;-67
2021/03/13 03:39:44;;;;;;;1.93;1.83;;;6.30;99.90;;;;;;5031305;28;20637;-67
2021/03/13 03:42:12;;;;;;;2.60;1.70;;;6.40;99.90;;;;;;5031601;28;20203;-67
2021/03/13 03:44:42;;;;;;;2.90;2.37;;;6.30;99.90;;;;;;5031617;28;20250;-67
2021/03/13 03:47:09;;;;;;;2.30;1.70;;;6.40;99.90;;;;;;5031953;28;20176;-65
2021/03/13 03:49:38;;;;;;;1.67;1.57;;;6.40;99.90;;;;;;5031321;28;20653;-67
2021/03/13 03:52:04;;;;;;;1.80;1.40;;;6.50;99.90;;;;;;5030846;28;20625;-66
2021/03/13 03:54:35;;;;;;;2.87;1.23;;;6.50;99.90;;;;;;5031594;28;20586;-67
2021/03/13 03:57:01;;;;;;;1.60;1.50;;;6.50;99.90;;;;;;5031616;28;20532;-67
2021/03/13 03:59:28;;;;;;;1.47;1.43;;;6.50;99.90;;;;;;5031650;28;20167;-67
2021/03/13 04:01:55;;;;;;;3.00;1.70;;;6.60;99.90;;;;;;5031373;28;20618;-67
2021/03/13 04:04:22;;;;;;;2.70;2.47;;;6.60;99.90;;;;;;5031254;28;20183;-67
2021/03/13 04:06:52;;;;;;;2.43;1.60;;;6.70;99.90;;;;;;5031402;28;20175;-67
2021/03/13 04:09:22;;;;;;;1.63;1.50;;;6.70;99.90;;;;;;5031260;28;20190;-66
2021/03/13 04:11:49;;;;;;;1.60;1.50;;;6.70;99.90;;;;;;5030026;28;20199;-67
2021/03/13 04:14:15;;;;;;;1.73;1.40;;;6.70;99.90;;;;;;5030903;28;20168;-67
2021/03/13 04:16:42;;;;;;;1.57;1.47;;;6.70;99.90;;;;;;5031074;28;20175;-67
2021/03/13 04:19:09;;;;;;;1.60;1.50;;;6.70;99.90;;;;;;5031738;28;20230;-67
2021/03/13 04:21:35;;;;;;;1.83;1.73;;;6.70;99.90;;;;;;5031057;28;20206;-67
2021/03/13 04:24:01;;;;;;;1.40;1.30;;;6.70;99.90;;;;;;5031452;28;20175;-66
2021/03/13 04:26:29;;;;;;;1.20;1.20;;;6.70;99.90;;;;;;5031116;28;20171;-66
2021/03/13 04:28:55;;;;;;;1.30;1.30;;;6.70;99.90;;;;;;5031425;28;20202;-67
2021/03/13 04:31:26;;;;;;;1.77;1.67;;;6.80;99.90;;;;;;5030496;28;20199;-67
2021/03/13 04:33:53;;;;;;;1.40;1.30;;;6.80;99.90;;;;;;5030601;28;20182;-67
2021/03/13 04:36:20;;;;;;;1.50;1.40;;;6.80;99.90;;;;;;5030964;28;20180;-67
2021/03/13 04:38:47;;;;;;;3.30;1.60;;;6.80;99.90;;;;;;5031131;28;20171;-66
2021/03/13 04:41:14;;;;;;;1.63;1.43;;;6.80;99.90;;;;;;5030858;28;20186;-66
2021/03/13 04:43:41;;;;;;;1.37;1.27;;;6.80;99.90;;;;;;5031254;28;20179;-66
2021/03/13 04:46:07;;;;;;;2.40;1.47;;;6.80;99.90;;;;;;5031064;28;20278;-67
2021/03/13 04:48:34;;;;;;;1.47;1.20;;;6.80;99.90;;;;;;5031025;28;20258;-67
2021/03/13 04:51:04;;;;;;;1.50;1.40;;;6.90;99.90;;;;;;5030623;28;20234;-67
2021/03/13 04:53:30;;;;;;;1.40;1.30;;;6.80;99.90;;;;;;5031081;28;20183;-66
2021/03/13 04:55:56;;;;;;;1.40;1.30;;;6.90;99.90;;;;;;5030979;28;20533;-67
2021/03/13 04:58:22;;;;;;;1.20;1.20;;;6.80;99.90;;;;;;5031068;28;20174;-67
2021/03/13 05:00:48;;;;;;;1.53;1.30;;;6.80;99.90;;;;;;5030357;28;20728;-67
2021/03/13 05:03:14;;;;;;;1.90;1.30;;;6.80;99.90;;;;;;5031049;28;20187;-66
2021/03/13 05:05:40;;;;;;;1.50;1.40;;;6.80;99.90;;;;;;5030774;28;20186;-65
2021/03/13 05:08:06;;;;;;;1.50;1.40;;;6.80;99.90;;;;;;5030932;28;20579;-65
2021/03/13 05:10:32;;;;;;;1.30;1.20;;;6.90;99.90;;;;;;5030264;28;20194;-67
2021/03/13 05:12:57;;;;;;;1.50;1.40;;;6.90;99.90;;;;;;5030950;28;20187;-67
2021/03/13 05:15:23;;;;;;;1.73;1.30;;;6.90;99.90;;;;;;5030659;28;20598;-66
2021/03/13 05:17:50;;;;;;;2.60;1.40;;;6.90;99.90;;;;;;5030895;28;20172;-67
2021/03/13 05:20:16;;;;;;;1.30;1.20;;;6.90;99.90;;;;;;5030325;28;20186;-67
2021/03/13 05:22:46;;;;;;;2.00;1.30;;;6.90;99.90;;;;;;5030779;28;20196;-67
2021/03/13 05:25:11;;;;;;;1.73;1.30;;;6.90;99.90;;;;;;5030716;28;20187;-68
2021/03/13 05:27:39;;;;;;;1.30;1.20;;;6.90;99.90;;;;;;5033481;28;20543;-67
2021/03/13 05:30:06;;;;;;;1.20;1.20;;;6.90;99.90;;;;;;5032757;28;20252;-66
2021/03/13 05:32:32;;;;;;;1.63;1.53;;;6.90;99.90;;;;;;5033845;28;20226;-67
2021/03/13 05:34:58;;;;;;;1.20;1.20;;;7.00;99.90;;;;;;5034258;28;20183;-66
2021/03/13 05:37:23;;;;;;;1.93;1.40;;;7.10;99.90;;;;;;5034298;28;20172;-66
2021/03/13 05:39:49;;;;;;;1.33;1.23;;;7.20;99.90;;;;;;5033742;28;20194;-67
2021/03/13 05:42:15;;;;;;;1.67;1.20;;;7.20;99.90;;;;;;5033821;28;20218;-66
2021/03/13 05:44:41;;;;;;;2.80;1.47;;;7.30;99.90;;;;;;5033824;28;20183;-65
2021/03/13 05:47:07;;;;;;;1.33;1.20;;;7.30;99.90;;;;;;5034322;28;20175;-67
2021/03/13 05:49:33;;;;;;;2.13;1.47;;;7.40;99.90;;;;;;5033639;28;20207;-66
2021/03/13 05:52:03;;;;;;;1.50;1.20;;;7.40;99.90;;;;;;5033145;28;20304;-65
2021/03/13 05:54:29;;;;;;;1.27;1.27;;;7.40;99.90;;;;;;5033732;28;20176;-67
2021/03/13 05:56:58;;;;;;;2.60;1.57;;;7.50;99.90;;;;;;5033536;28;20456;-67
2021/03/13 05:59:24;;;;;;;1.47;1.37;;;7.50;99.90;;;;;;5033763;28;20198;-67
2021/03/13 06:01:50;;;;;;;1.80;1.57;;;7.50;99.90;;;;;;5033214;28;20199;-65
2021/03/13 06:04:16;;;;;;;2.07;1.27;;;7.50;99.90;;;;;;5033721;28;20172;-67
2021/03/13 06:06:42;;;;;;;1.37;1.30;;;7.60;99.90;;;;;;5033339;28;20189;-67
2021/03/13 06:09:09;;;;;;;1.20;1.10;;;7.60;99.90;;;;;;5033929;28;20259;-67
2021/03/13 06:11:35;;;;;;;2.73;1.20;;;7.60;99.90;;;;;;5032476;28;20290;-68
2021/03/13 06:14:01;;;;;;;2.03;1.23;;;7.60;99.90;;;;;;5033652;28;20541;-67
2021/03/13 06:16:26;;;;;;;7.53;1.40;;;7.60;99.90;;;;;;5032670;28;20282;-67
2021/03/13 06:18:56;;;;;;;2.40;1.43;;;7.60;99.90;;;;;;5033181;28;20603;-68
2021/03/13 06:21:31;;;;;;;1.20;1.17;;;7.70;99.90;;;;;;5032222;28;20720;-67
2021/03/13 06:24:01;;;;;;;1.63;1.23;;;7.70;99.90;;;;;;5032678;28;20179;-67
2021/03/13 06:26:28;;;;;;;4.50;1.27;;;7.60;99.90;;;;;;5033234;28;20579;-66
2021/03/13 06:28:56;;;;;;;1.40;1.30;;;7.60;99.90;;;;;;5033062;28;20179;-67
2021/03/13 06:31:26;;;;;;;1.10;1.10;;;7.70;99.90;;;;;;5032455;28;20298;-66
2021/03/13 06:33:56;;;;;;;4.03;1.40;;;7.70;99.90;;;;;;5032418;28;20210;-66
2021/03/13 06:36:24;;;;;;;3.63;1.57;;;7.70;99.90;;;;;;5032677;28;20699;-68
2021/03/13 06:38:50;;;;;;;1.30;1.20;;;7.60;99.90;;;;;;5032286;28;20171;-67
2021/03/13 06:41:23;;;;;;;1.27;1.17;;;7.70;99.90;;;;;;5032843;28;20175;-66
2021/03/13 06:43:56;;;;;;;3.17;1.30;;;7.70;99.90;;;;;;5032824;28;20184;-67
2021/03/13 06:46:29;;;;;;;1.30;1.20;;;7.70;99.90;;;;;;5032924;28;20186;-68
2021/03/13 06:48:57;;;;;;;1.40;1.30;;;7.70;99.90;;;;;;5032277;28;20183;-67
2021/03/13 06:51:39;;;;;;;1.27;1.10;;;7.90;99.90;;;;;;5031777;28;20203;-66
2021/03/13 06:54:07;;;;;;;1.80;1.50;;;7.90;99.90;;;;;;5032558;28;20254;-66
2021/03/13 06:56:39;;;;;;;1.30;1.20;;;8.00;99.90;;;;;;5017969;28;20196;-67
2021/03/13 06:59:18;;;;;;;2.70;1.50;;;8.00;99.90;;;;;;5032294;28;20179;-67
2021/03/13 07:01:44;;;;;;;1.73;1.33;;;8.10;99.90;;;;;;5031863;28;20195;-67
2021/03/13 07:04:11;;;;;;;1.10;1.00;;;8.10;99.90;;;;;;5032082;28;20217;-67
2021/03/13 07:06:46;;;;;;;1.10;1.10;;;8.10;99.90;;;;;;5032161;28;20537;-68
2021/03/13 07:09:11;;;;;;;2.40;1.43;;;8.10;99.90;;;;;;5032522;28;20679;-67
2021/03/13 07:11:37;;;;;;;1.30;1.20;;;8.10;99.90;;;;;;5031780;28;20207;-66
2021/03/13 07:14:03;;;;;;;1.40;1.20;;;8.10;99.90;;;;;;5032165;28;20676;-67
2021/03/13 07:16:35;;;;;;;2.77;1.70;;;8.10;99.90;;;;;;5031800;28;20221;-67
2021/03/13 07:19:12;;;;;;;1.20;1.20;;;8.10;99.90;;;;;;5031913;28;20635;-67
2021/03/13 07:21:42;;;;;;;1.50;1.40;;;8.20;99.90;;;;;;5031502;28;20195;-67
2021/03/13 07:24:12;;;;;;;1.43;1.33;;;8.20;99.90;;;;;;5032096;28;20593;-67
2021/03/13 07:26:43;;;;;;;1.40;1.40;;;8.30;99.90;;;;;;5031714;28;20186;-67
2021/03/13 07:29:11;;;;;;;1.30;1.20;;;8.20;99.90;;;;;;5032057;28;20641;-67
2021/03/13 07:31:43;;;;;;;1.47;1.20;;;8.20;99.90;;;;;;5030726;28;20704;-68
2021/03/13 07:34:12;;;;;;;4.20;3.67;;;8.20;99.90;;;;;;5032072;28;20159;-68
2021/03/13 07:36:41;;;;;;;9.93;5.97;;;7.90;99.90;;;;;;5032073;28;20175;-67
2021/03/13 07:39:17;;;;;;;2.93;1.40;;;7.80;99.90;;;;;;5032863;28;20166;-68
2021/03/13 07:42:19;;;;;;;3.13;1.77;;;7.20;99.90;;;;;;5031855;28;20297;-68
2021/03/13 07:44:46;;;;;;;3.13;1.90;;;5.70;99.90;;;;;;5032070;28;20208;-68
2021/03/13 07:47:15;;;;;;;1.83;1.73;;;5.40;99.90;;;;;;5032001;28;20675;-67
2021/03/13 07:49:41;;;;;;;3.73;1.93;;;5.40;99.90;;;;;;5031157;28;20172;-66
2021/03/13 07:52:09;;;;;;;4.20;2.40;;;5.30;99.90;;;;;;5031240;28;20207;-68
2021/03/13 07:54:54;;;;;;;2.47;1.50;;;5.30;99.90;;;;;;5031412;28;20218;-66
2021/03/13 07:57:20;;;;;;;1.70;1.60;;;5.40;99.90;;;;;;5031659;28;20511;-67
2021/03/13 07:59:50;;;;;;;1.40;1.30;;;5.40;99.90;;;;;;5030979;28;20211;-67
2021/03/13 08:02:36;;;;;;;1.60;1.30;;;5.50;99.90;;;;;;5031348;28;20183;-67
2021/03/13 08:05:07;;;;;;;1.40;1.30;;;5.60;99.90;;;;;;5031127;28;20187;-68
2021/03/13 08:07:51;;;;;;;1.63;1.37;;;5.70;99.90;;;;;;5031558;28;20254;-66
2021/03/13 08:10:40;;;;;;;1.50;1.40;;;5.80;99.90;;;;;;5030899;28;20179;-67
2021/03/13 08:13:26;;;;;;;1.47;1.27;;;5.80;99.90;;;;;;5027072;28;20554;-67
2021/03/13 08:16:05;;;;;;;2.47;1.30;;;5.90;99.90;;;;;;5026934;28;20345;-67
2021/03/13 08:18:58;;;;;;;1.60;1.50;;;5.90;99.90;;;;;;5029759;28;20306;-67
2021/03/13 08:21:23;;;;;;;1.63;1.40;;;6.00;99.90;;;;;;5014949;28;20183;-67
2021/03/13 08:24:10;;;;;;;1.77;1.67;;;6.10;99.90;;;;;;5029199;28;20262;-66
2021/03/13 08:26:36;;;;;;;2.50;1.60;;;6.20;99.90;;;;;;5017347;28;20542;-65
2021/03/13 08:29:06;;;;;;;2.17;1.50;;;6.30;99.90;;;;;;5011673;28;20177;-65
2021/03/13 08:31:32;;;;;;;1.83;1.47;;;6.40;99.90;;;;;;5030124;28;20207;-66
2021/03/13 08:34:04;;;;;;;1.70;1.40;;;6.50;99.90;;;;;;5029795;28;20254;-66
2021/03/13 08:36:50;;;;;;;1.57;1.47;;;6.60;99.90;;;;;;5029650;28;20593;-67
2021/03/13 08:39:21;;;;;;;1.47;1.30;;;7.00;99.90;;;;;;5031022;28;20266;-67
2021/03/13 08:41:56;;;;;;;3.50;1.57;;;6.80;99.90;;;;;;5029326;28;20696;-65
2021/03/13 08:44:25;;;;;;;1.37;1.30;;;6.90;99.90;;;;;;5043569;23;20727;-65
2021/03/13 08:47:03;;;;;;;1.60;1.50;;;7.00;99.90;;;;;;5030976;28;20210;-65
2021/03/13 08:49:29;;;;;;;2.50;2.17;;;7.10;99.90;;;;;;5030113;28;20533;-66
2021/03/13 08:52:07;;;;;;;1.60;1.50;;;7.20;99.90;;;;;;5010703;28;20202;-66
2021/03/13 08:54:39;;;;;;;2.40;1.70;;;7.30;99.90;;;;;;5019908;28;20214;-66
2021/03/13 08:57:05;;;;;;;3.40;1.30;;;7.30;99.90;;;;;;5030715;28;20645;-66
2021/03/13 08:59:32;;;;;;;2.87;1.40;;;7.40;99.90;;;;;;5030790;28;20171;-66
2021/03/13 09:02:07;;;;;;;3.80;1.27;;;7.50;99.90;;;;;;5033715;28;20182;-66
2021/03/13 09:04:35;;;;;;;2.77;1.73;;;7.60;99.90;;;;;;5034446;28;20191;-65
2021/03/13 09:07:02;;;;;;;1.63;1.53;;;7.70;99.90;;;;;;5034312;28;20182;-66
2021/03/13 09:09:30;;;;;;;2.97;1.40;;;7.80;99.90;;;;;;5034553;28;20213;-66
2021/03/13 09:11:56;;;;;;;7.10;1.90;;;7.80;99.90;;;;;;5033673;28;20564;-65
2021/03/13 09:14:22;;;;;;;4.00;1.53;;;7.80;99.90;;;;;;5034216;28;20183;-66
2021/03/13 09:16:48;;;;;;;1.83;1.40;;;7.90;99.90;;;;;;5034058;28;20724;-65
2021/03/13 09:19:14;;;;;;;1.50;1.40;;;7.90;99.90;;;;;;5034257;28;20271;-65
2021/03/13 09:21:41;;;;;;;3.07;1.43;;;8.00;99.90;;;;;;5034071;28;20174;-66
2021/03/13 09:24:08;;;;;;;7.73;1.77;;;8.00;99.90;;;;;;5034054;28;20595;-66
2021/03/13 09:26:34;;;;;;;2.27;1.50;;;8.00;99.90;;;;;;5034107;28;20171;-66
2021/03/13 09:29:00;;;;;;;5.07;2.07;;;8.00;99.90;;;;;;5033963;28;20182;-66
2021/03/13 09:31:26;;;;;;;3.17;1.73;;;8.00;99.90;;;;;;5033638;28;20260;-66
2021/03/13 09:33:52;;;;;;;3.73;1.93;;;8.10;99.90;;;;;;5033780;28;20199;-66
2021/03/13 09:36:18;;;;;;;2.17;1.40;;;8.10;99.90;;;;;;5032298;28;20195;-67
2021/03/13 09:38:58;;;;;;;5.87;2.07;;;8.10;99.90;;;;;;5033840;28;20270;-66
2021/03/13 09:41:24;;;;;;;4.23;1.67;;;8.10;99.90;;;;;;5033568;28;20265;-66
2021/03/13 09:43:49;;;;;;;2.63;1.70;;;8.10;99.90;;;;;;5034179;28;20803;-65
2021/03/13 09:46:17;;;;;;;3.83;1.80;;;8.20;99.90;;;;;;5033677;28;20228;-66
2021/03/13 09:48:43;;;;;;;5.07;2.43;;;8.20;99.90;;;;;;5033708;28;20171;-66
2021/03/13 09:51:09;;;;;;;4.27;1.80;;;8.20;99.90;;;;;;5032908;28;20584;-66
2021/03/13 09:53:36;;;;;;;6.47;1.60;;;8.20;99.90;;;;;;5032273;28;20562;-66
2021/03/13 09:56:01;;;;;;;2.20;1.60;;;8.20;99.90;;;;;;5033507;28;20719;-66
2021/03/13 09:58:27;;;;;;;7.73;2.30;;;8.20;99.90;;;;;;5033640;28;20176;-66
2021/03/13 10:00:53;;;;;;;5.60;1.93;;;8.20;99.90;;;;;;5032750;28;20188;-66
2021/03/13 10:03:21;;;;;;;5.00;1.70;;;8.40;99.90;;;;;;5033379;28;20253;-66
2021/03/13 10:05:56;;;;;;;6.00;1.93;;;8.60;99.90;;;;;;5033234;28;20179;-65
2021/03/13 10:08:36;;;;;;;4.63;1.83;;;9.10;99.90;;;;;;5033430;28;20251;-66
2021/03/13 10:11:03;;;;;;;3.30;1.60;;;9.30;99.90;;;;;;5032027;28;20199;-66
2021/03/13 10:13:29;;;;;;;2.63;1.73;;;9.60;99.90;;;;;;5032473;28;20275;-66
2021/03/13 10:15:55;;;;;;;6.43;2.10;;;9.80;99.90;;;;;;5032747;28;20285;-66
2021/03/13 10:18:26;;;;;;;5.33;2.30;;;9.90;99.90;;;;;;5033108;28;20246;-66
2021/03/13 10:20:53;;;;;;;8.63;1.83;;;9.90;99.90;;;;;;5032754;28;20564;-65
2021/03/13 10:23:24;;;;;;;6.20;1.80;;;9.80;99.90;;;;;;5031981;28;20192;-66
2021/03/13 10:26:01;;;;;;;4.63;2.27;;;9.80;99.90;;;;;;5032973;28;20258;-66
2021/03/13 10:28:31;;;;;;;3.20;2.07;;;9.80;99.90;;;;;;5033157;28;20574;-66
2021/03/13 10:31:11;;;;;;;8.70;2.13;;;9.80;99.90;;;;;;5031565;28;20207;-66
2021/03/13 10:33:41;;;;;;;4.70;2.00;;;10.10;99.90;;;;;;5032702;28;20183;-66
2021/03/13 10:36:08;;;;;;;5.83;1.90;;;10.60;99.90;;;;;;5031388;28;20187;-66
2021/03/13 10:38:47;;;;;;;6.30;2.50;;;10.60;99.90;;;;;;5032625;28;20265;-66
2021/03/13 10:41:15;;;;;;;7.73;2.47;;;10.40;99.90;;;;;;5032620;28;20191;-66
2021/03/13 10:43:44;;;;;;;4.40;2.27;;;10.20;99.90;;;;;;5032550;28;20286;-66
2021/03/13 10:46:21;;;;;;;6.23;2.23;;;10.10;99.90;;;;;;5032662;28;20184;-66
2021/03/13 10:48:47;;;;;;;5.03;2.40;;;9.90;99.90;;;;;;5032698;28;20176;-66
2021/03/13 10:51:19;;;;;;;6.30;2.63;;;9.80;99.90;;;;;;5031971;28;20212;-66
2021/03/13 10:53:45;;;;;;;9.50;2.10;;;9.70;99.90;;;;;;5031203;28;20202;-66
2021/03/13 10:56:12;;;;;;;12.63;2.33;;;9.90;99.90;;;;;;5031172;28;20172;-66
2021/03/13 10:58:46;;;;;;;6.70;2.37;;;10.10;99.90;;;;;;5032218;28;20534;-66
2021/03/13 11:01:11;;;;;;;3.43;2.00;;;10.20;99.90;;;;;;5032081;28;20213;-66
2021/03/13 11:03:37;;;;;;;6.43;2.30;;;10.10;99.90;;;;;;5032052;28;20199;-66
2021/03/13 11:06:03;;;;;;;3.60;1.70;;;10.30;99.90;;;;;;5032488;28;20187;-66
2021/03/13 11:08:29;;;;;;;4.77;2.57;;;10.30;99.90;;;;;;5031925;28;20183;-66
2021/03/13 11:10:56;;;;;;;4.10;1.90;;;10.20;99.90;;;;;;5031854;28;20215;-66
2021/03/13 11:13:23;;;;;;;7.10;3.07;;;10.50;99.90;;;;;;5031790;28;20195;-66
2021/03/13 11:15:50;;;;;;;5.27;2.33;;;11.00;99.90;;;;;;5032178;28;20552;-66
2021/03/13 11:18:16;;;;;;;5.43;2.20;;;11.10;99.90;;;;;;5031897;28;20214;-66
2021/03/13 11:20:43;;;;;;;9.47;2.50;;;11.10;99.90;;;;;;5031516;28;20179;-66
2021/03/13 11:23:09;;;;;;;6.80;2.33;;;11.40;99.90;;;;;;5031942;28;20191;-66
2021/03/13 11:25:35;;;;;;;5.83;2.07;;;11.10;99.90;;;;;;5031788;28;20188;-66
2021/03/13 11:28:01;;;;;;;6.93;2.50;;;10.60;99.90;;;;;;5031636;28;20179;-66
2021/03/13 11:30:27;;;;;;;12.33;2.90;;;10.20;99.90;;;;;;5031317;28;20254;-66
2021/03/13 11:32:53;;;;;;;9.67;2.97;;;10.00;99.90;;;;;;5031625;28;20211;-66
2021/03/13 11:35:20;;;;;;;11.53;3.03;;;10.10;99.90;;;;;;5031637;28;20179;-66
2021/03/13 11:37:47;;;;;;;6.30;2.50;;;10.10;99.90;;;;;;5031778;28;20534;-66
2021/03/13 11:40:14;;;;;;;5.43;2.27;;;10.20;99.90;;;;;;5031319;28;20184;-65
2021/03/13 11:42:40;;;;;;;3.10;1.90;;;10.30;99.90;;;;;;5031492;28;20198;-66
2021/03/13 11:45:08;;;;;;;9.70;3.30;;;10.70;99.90;;;;;;5031513;28;20218;-66
2021/03/13 11:47:34;;;;;;;10.87;2.30;;;10.90;99.90;;;;;;5031038;28;20280;-66
2021/03/13 11:50:00;;;;;;;8.17;3.33;;;11.40;99.90;;;;;;5031465;28;20214;-66
2021/03/13 11:52:26;;;;;;;12.73;3.20;;;11.70;99.90;;;;;;5030725;28;20227;-66
2021/03/13 11:54:53;;;;;;;10.53;2.60;;;11.40;99.90;;;;;;5031412;28;20488;-66
2021/03/13 11:57:19;;;;;;;9.57;3.13;;;10.80;99.90;;;;;;5030058;28;20585;-66
2021/03/13 11:59:49;;;;;;;11.30;3.30;;;10.50;99.90;;;;;;5030976;28;20306;-66
2021/03/13 12:02:16;;;;;;;8.00;3.17;;;10.20;99.90;;;;;;5031120;28;20271;-66
2021/03/13 12:04:43;;;;;;;4.57;2.57;;;10.40;99.90;;;;;;5030858;28;20253;-66
2021/03/13 12:07:09;;;;;;;8.57;3.30;;;11.10;99.90;;;;;;5031340;28;20183;-66
2021/03/13 12:09:35;;;;;;;5.27;3.20;;;11.60;99.90;;;;;;5031168;28;20731;-66
2021/03/13 12:12:04;;;;;;;6.97;1.97;;;11.80;99.90;;;;;;5030643;28;20556;-66
2021/03/13 12:14:30;;;;;;;7.33;2.10;;;11.90;99.90;;;;;;5030678;28;20573;-66
2021/03/13 12:16:56;;;;;;;7.87;3.20;;;12.00;99.90;;;;;;5029878;28;20546;-66
2021/03/13 12:19:22;;;;;;;6.30;2.57;;;12.40;99.90;;;;;;5030993;28;20183;-66
2021/03/13 12:21:49;;;;;;;15.70;3.63;;;12.20;99.90;;;;;;5030884;28;20660;-66
2021/03/13 12:24:15;;;;;;;4.87;2.53;;;11.60;99.90;;;;;;5031136;28;20196;-66
2021/03/13 12:26:40;;;;;;;12.83;3.53;;;11.20;99.90;;;;;;5029187;28;20187;-66
2021/03/13 12:29:06;;;;;;;9.27;3.30;;;10.70;99.90;;;;;;5031751;28;20227;-66
2021/03/13 12:31:31;;;;;;;7.93;4.97;;;10.10;99.90;;;;;;5029009;28;20203;-66
2021/03/13 12:33:57;;;;;;;16.47;4.40;;;9.50;99.90;;;;;;5030913;28;20204;-67
2021/03/13 12:36:23;;;;;;;14.30;3.47;;;8.80;99.90;;;;;;5033534;28;20198;-65
2021/03/13 12:38:48;;;;;;;11.17;3.17;;;7.90;99.90;;;;;;5034961;28;20183;-65
2021/03/13 12:41:14;;;;;;;7.43;2.83;;;7.50;99.90;;;;;;5034873;28;20179;-65
2021/03/13 12:43:40;;;;;;;7.23;2.83;;;7.30;99.90;;;;;;5034680;28;20223;-65
2021/03/13 12:46:05;;;;;;;13.30;3.07;;;7.00;99.90;;;;;;5035062;28;20175;-68
2021/03/13 12:48:31;;;;;;;6.73;3.13;;;6.80;99.90;;;;;;5034530;28;20187;-65
2021/03/13 12:50:57;;;;;;;9.60;2.47;;;6.60;99.90;;;;;;5034536;28;20180;-65
2021/03/13 12:53:23;;;;;;;7.07;2.40;;;6.50;99.90;;;;;;5034563;28;20210;-67
2021/03/13 12:55:48;;;;;;;5.17;2.20;;;6.50;99.90;;;;;;5034792;28;20179;-67
2021/03/13 12:58:14;;;;;;;4.57;1.97;;;6.70;99.90;;;;;;5034685;28;20619;-67
2021/03/13 13:00:41;;;;;;;6.73;2.20;;;7.30;99.90;;;;;;5034255;28;20274;-65
2021/03/13 13:03:08;;;;;;;5.43;2.30;;;8.00;99.90;;;;;;5034773;28;20290;-65